메인 페이지
METAR-TAF:

METAR-TAF

공항 :

부르가스, 불가리아

위도: 42-29N, 경도: 027-29E, 고도: 16m

현재 날씨관측

예보는 23분 전, 17:00시(UTC)에 발표되었습니다.
9kt
온도 15°C
습도 77%
기압 1008 hPa
시정 10km 이상
고도 4200ft 상공 구름 많음

METAR: LBBG 061700Z 17009KT 9999 BKN042 15/11 Q1008 NOSIG

시각: 19:23 (17:23 UTC)

예보

예보는 6 시간 23분 전, 11:00시(UTC)에 발표되었습니다.
예보 대상 시간: 06일 12시부터 07일 12시까지 (UTC)
남남동12kt
시정 10km 이상
고도 2000ft 상공 구름 보통
고도 4000ft 상공 구름 많음
일시적
06일 12시부터 06일 16시까지 (UTC)
남남서16kt, 순간 최대 풍속 28kt
확률 30%
06일 13시부터 06일 15시까지 (UTC)
시정: 5000m
고도 2500ft 상공 구름 조금, 적란운.
고도 3300ft 상공 흐림
소나기
전환 중
07일 00시부터 07일 02시까지 (UTC)
고도 1500ft 상공 구름 보통
고도 3000ft 상공 흐림
확률 40% :
일시적
07일 02시부터 07일 06시까지 (UTC)
시정: 5000m
고도 1400ft 상공 구름 많음
고도 2500ft 상공 흐림

TAF: LBBG 061100Z 0612/0712 15012KT 9999 SCT020 BKN040 TEMPO 0612/0616 20016G28KT PROB30 0613/0615 5000 SHRA FEW025CB OVC033 BECMG 0700/0702 SCT015 OVC030 PROB40 TEMPO 0702/0706 5000 RA BKN014 OVC025

4,000개 이상의 공항 관측 자료 및 예보 (METAR 및 TAF 보고).

지도상에서 검색 가능한 기상관측소가 노란 점과 빨간 점으로 표시되어 있습니다.

기상관측소 명을 보려면 표시 위로 마우스를 이동하세요.

날씨 관측과 예보를 보려면 클릭하세요.

지도 변경 : 확대하려면 엑스 표시가 있는 녹색 버튼, 축소하려면 빼기 표시가 있는 녹색 버튼, 다음 페이지의 지도를 보려면 녹색 화살표를 클릭하세요.


METAR-TAF: